sensor_id;sensor_type;location;lat;lon;timestamp;temperature;humidity
11836;DHT22;5977;51.972;7.640;2022-08-25T00:00:13;26.20;65.00
11836;DHT22;5977;51.972;7.640;2022-08-25T00:02:41;26.30;65.30
11836;DHT22;5977;51.972;7.640;2022-08-25T00:05:23;26.20;64.40
11836;DHT22;5977;51.972;7.640;2022-08-25T00:07:55;26.30;65.10
11836;DHT22;5977;51.972;7.640;2022-08-25T00:10:23;26.30;64.60
11836;DHT22;5977;51.972;7.640;2022-08-25T00:12:52;26.20;65.00
11836;DHT22;5977;51.972;7.640;2022-08-25T00:15:21;26.20;65.20
11836;DHT22;5977;51.972;7.640;2022-08-25T00:17:49;26.20;65.30
11836;DHT22;5977;51.972;7.640;2022-08-25T00:20:17;26.20;65.00
11836;DHT22;5977;51.972;7.640;2022-08-25T00:22:45;26.20;64.90
11836;DHT22;5977;51.972;7.640;2022-08-25T00:25:14;26.20;65.30
11836;DHT22;5977;51.972;7.640;2022-08-25T00:27:42;26.20;64.90
11836;DHT22;5977;51.972;7.640;2022-08-25T00:30:13;26.20;65.20
11836;DHT22;5977;51.972;7.640;2022-08-25T00:32:43;26.20;65.00
11836;DHT22;5977;51.972;7.640;2022-08-25T00:35:23;26.10;64.90
11836;DHT22;5977;51.972;7.640;2022-08-25T00:37:51;26.20;65.40
11836;DHT22;5977;51.972;7.640;2022-08-25T00:40:19;26.20;65.30
11836;DHT22;5977;51.972;7.640;2022-08-25T00:42:48;26.20;65.30
11836;DHT22;5977;51.972;7.640;2022-08-25T00:45:17;26.20;65.40
11836;DHT22;5977;51.972;7.640;2022-08-25T00:47:45;26.20;65.30
11836;DHT22;5977;51.972;7.640;2022-08-25T00:50:14;26.20;65.50
11836;DHT22;5977;51.972;7.640;2022-08-25T00:52:47;26.10;65.50
11836;DHT22;5977;51.972;7.640;2022-08-25T00:55:19;26.10;65.20
11836;DHT22;5977;51.972;7.640;2022-08-25T00:57:53;26.10;65.30
11836;DHT22;5977;51.972;7.640;2022-08-25T01:00:26;26.10;64.80
11836;DHT22;5977;51.972;7.640;2022-08-25T01:02:55;26.10;64.90
11836;DHT22;5977;51.972;7.640;2022-08-25T01:05:25;26.10;64.60
11836;DHT22;5977;51.972;7.640;2022-08-25T01:07:55;26.10;65.40
11836;DHT22;5977;51.972;7.640;2022-08-25T01:10:25;26.10;65.00
11836;DHT22;5977;51.972;7.640;2022-08-25T01:13:00;26.10;64.90
11836;DHT22;5977;51.972;7.640;2022-08-25T01:15:30;26.10;64.80
11836;DHT22;5977;51.972;7.640;2022-08-25T01:18:03;26.10;65.20
11836;DHT22;5977;51.972;7.640;2022-08-25T01:20:31;26.00;65.10
11836;DHT22;5977;51.972;7.640;2022-08-25T01:23:01;26.10;65.10
11836;DHT22;5977;51.972;7.640;2022-08-25T01:25:35;26.00;64.60
11836;DHT22;5977;51.972;7.640;2022-08-25T01:28:06;26.00;64.00
11836;DHT22;5977;51.972;7.640;2022-08-25T01:30:34;26.00;65.00
11836;DHT22;5977;51.972;7.640;2022-08-25T01:33:03;26.00;65.40
11836;DHT22;5977;51.972;7.640;2022-08-25T01:35:31;26.00;64.90
11836;DHT22;5977;51.972;7.640;2022-08-25T01:38:01;26.00;64.90
11836;DHT22;5977;51.972;7.640;2022-08-25T01:40:30;26.00;65.10
11836;DHT22;5977;51.972;7.640;2022-08-25T01:43:07;26.10;65.30
11836;DHT22;5977;51.972;7.640;2022-08-25T01:45:40;26.00;64.90
11836;DHT22;5977;51.972;7.640;2022-08-25T01:48:10;26.10;65.00
11836;DHT22;5977;51.972;7.640;2022-08-25T01:50:39;26.00;64.50
11836;DHT22;5977;51.972;7.640;2022-08-25T01:53:12;26.00;64.80
11836;DHT22;5977;51.972;7.640;2022-08-25T01:55:41;26.10;64.90
11836;DHT22;5977;51.972;7.640;2022-08-25T01:58:21;26.00;64.20
11836;DHT22;5977;51.972;7.640;2022-08-25T02:00:51;26.00;64.60
11836;DHT22;5977;51.972;7.640;2022-08-25T02:03:20;25.90;64.70
11836;DHT22;5977;51.972;7.640;2022-08-25T02:05:47;25.90;64.60
11836;DHT22;5977;51.972;7.640;2022-08-25T02:08:17;25.90;64.80
11836;DHT22;5977;51.972;7.640;2022-08-25T02:10:45;25.80;64.00
11836;DHT22;5977;51.972;7.640;2022-08-25T02:13:14;25.90;65.10
11836;DHT22;5977;51.972;7.640;2022-08-25T02:15:45;25.90;65.10
11836;DHT22;5977;51.972;7.640;2022-08-25T02:18:14;25.90;65.10
11836;DHT22;5977;51.972;7.640;2022-08-25T02:20:43;26.00;65.10
11836;DHT22;5977;51.972;7.640;2022-08-25T02:23:11;25.90;64.80
11836;DHT22;5977;51.972;7.640;2022-08-25T02:25:41;25.90;64.90
11836;DHT22;5977;51.972;7.640;2022-08-25T02:28:10;25.90;64.40
11836;DHT22;5977;51.972;7.640;2022-08-25T02:30:39;25.90;64.90
11836;DHT22;5977;51.972;7.640;2022-08-25T02:33:08;25.90;64.60
11836;DHT22;5977;51.972;7.640;2022-08-25T02:35:37;25.90;65.10
11836;DHT22;5977;51.972;7.640;2022-08-25T02:38:05;25.90;65.00
11836;DHT22;5977;51.972;7.640;2022-08-25T02:40:33;25.90;65.10
11836;DHT22;5977;51.972;7.640;2022-08-25T02:43:02;26.00;65.30
11836;DHT22;5977;51.972;7.640;2022-08-25T02:45:31;26.00;65.10
11836;DHT22;5977;51.972;7.640;2022-08-25T02:47:59;25.90;64.80
11836;DHT22;5977;51.972;7.640;2022-08-25T02:50:27;26.00;65.20
11836;DHT22;5977;51.972;7.640;2022-08-25T02:52:55;25.90;65.10
11836;DHT22;5977;51.972;7.640;2022-08-25T02:55:23;26.00;65.20
11836;DHT22;5977;51.972;7.640;2022-08-25T02:57:51;25.90;65.10
11836;DHT22;5977;51.972;7.640;2022-08-25T03:00:20;25.90;64.90
11836;DHT22;5977;51.972;7.640;2022-08-25T03:02:48;25.90;65.10
11836;DHT22;5977;51.972;7.640;2022-08-25T03:05:16;26.00;65.30
11836;DHT22;5977;51.972;7.640;2022-08-25T03:07:44;26.00;65.20
11836;DHT22;5977;51.972;7.640;2022-08-25T03:10:16;26.00;65.30
11836;DHT22;5977;51.972;7.640;2022-08-25T03:12:44;26.00;65.20
11836;DHT22;5977;51.972;7.640;2022-08-25T03:15:15;25.90;65.20
11836;DHT22;5977;51.972;7.640;2022-08-25T03:17:46;25.90;65.20
11836;DHT22;5977;51.972;7.640;2022-08-25T03:20:16;26.00;65.30
11836;DHT22;5977;51.972;7.640;2022-08-25T03:22:45;25.90;65.10
11836;DHT22;5977;51.972;7.640;2022-08-25T03:25:13;25.90;65.20
11836;DHT22;5977;51.972;7.640;2022-08-25T03:27:59;25.90;65.20
11836;DHT22;5977;51.972;7.640;2022-08-25T03:30:27;25.90;65.20
11836;DHT22;5977;51.972;7.640;2022-08-25T03:32:57;25.90;65.10
11836;DHT22;5977;51.972;7.640;2022-08-25T03:35:25;25.90;65.20
11836;DHT22;5977;51.972;7.640;2022-08-25T03:37:55;25.90;65.30
11836;DHT22;5977;51.972;7.640;2022-08-25T03:40:23;25.90;65.10
11836;DHT22;5977;51.972;7.640;2022-08-25T03:42:52;25.80;65.20
11836;DHT22;5977;51.972;7.640;2022-08-25T03:45:21;25.80;65.10
11836;DHT22;5977;51.972;7.640;2022-08-25T03:47:50;25.90;65.10
11836;DHT22;5977;51.972;7.640;2022-08-25T03:50:21;25.90;64.90
11836;DHT22;5977;51.972;7.640;2022-08-25T03:52:50;25.80;64.50
11836;DHT22;5977;51.972;7.640;2022-08-25T03:55:20;25.80;65.10
11836;DHT22;5977;51.972;7.640;2022-08-25T03:57:48;25.80;64.90
11836;DHT22;5977;51.972;7.640;2022-08-25T04:00:16;25.80;65.10
11836;DHT22;5977;51.972;7.640;2022-08-25T04:02:44;25.80;64.90
11836;DHT22;5977;51.972;7.640;2022-08-25T04:05:12;25.90;65.00
11836;DHT22;5977;51.972;7.640;2022-08-25T04:07:43;25.90;64.90
11836;DHT22;5977;51.972;7.640;2022-08-25T04:10:11;25.90;65.00
11836;DHT22;5977;51.972;7.640;2022-08-25T04:12:39;25.90;64.90
11836;DHT22;5977;51.972;7.640;2022-08-25T04:15:08;25.90;65.00
11836;DHT22;5977;51.972;7.640;2022-08-25T04:17:37;25.80;64.90
11836;DHT22;5977;51.972;7.640;2022-08-25T04:20:07;25.90;65.00
11836;DHT22;5977;51.972;7.640;2022-08-25T04:22:36;25.80;64.90
11836;DHT22;5977;51.972;7.640;2022-08-25T04:25:06;25.90;65.10
11836;DHT22;5977;51.972;7.640;2022-08-25T04:27:35;25.90;65.10
11836;DHT22;5977;51.972;7.640;2022-08-25T04:30:05;25.90;65.10
11836;DHT22;5977;51.972;7.640;2022-08-25T04:32:34;25.90;65.10
11836;DHT22;5977;51.972;7.640;2022-08-25T04:35:02;25.80;65.00
11836;DHT22;5977;51.972;7.640;2022-08-25T04:37:31;25.80;65.40
11836;DHT22;5977;51.972;7.640;2022-08-25T04:40:00;25.80;65.40
11836;DHT22;5977;51.972;7.640;2022-08-25T04:42:29;25.90;65.30
11836;DHT22;5977;51.972;7.640;2022-08-25T04:44:57;25.90;65.30
11836;DHT22;5977;51.972;7.640;2022-08-25T04:47:26;25.90;65.30
11836;DHT22;5977;51.972;7.640;2022-08-25T04:49:54;25.90;65.20
11836;DHT22;5977;51.972;7.640;2022-08-25T04:52:22;25.80;64.80
11836;DHT22;5977;51.972;7.640;2022-08-25T04:54:50;25.90;65.30
11836;DHT22;5977;51.972;7.640;2022-08-25T04:57:18;25.80;64.80
11836;DHT22;5977;51.972;7.640;2022-08-25T04:59:47;25.80;65.20
11836;DHT22;5977;51.972;7.640;2022-08-25T05:02:15;25.70;65.20
11836;DHT22;5977;51.972;7.640;2022-08-25T05:04:43;25.80;65.50
11836;DHT22;5977;51.972;7.640;2022-08-25T05:07:11;25.70;65.10
11836;DHT22;5977;51.972;7.640;2022-08-25T05:09:39;25.70;64.90
11836;DHT22;5977;51.972;7.640;2022-08-25T05:12:07;25.70;65.40
11836;DHT22;5977;51.972;7.640;2022-08-25T05:14:38;25.70;65.50
11836;DHT22;5977;51.972;7.640;2022-08-25T05:17:08;25.70;65.00
11836;DHT22;5977;51.972;7.640;2022-08-25T05:19:36;25.80;65.30
11836;DHT22;5977;51.972;7.640;2022-08-25T05:22:04;25.70;65.10
11836;DHT22;5977;51.972;7.640;2022-08-25T05:24:32;25.70;65.20
11836;DHT22;5977;51.972;7.640;2022-08-25T05:27:00;25.80;65.40
11836;DHT22;5977;51.972;7.640;2022-08-25T05:29:29;25.70;64.80
11836;DHT22;5977;51.972;7.640;2022-08-25T05:31:57;25.70;65.30
11836;DHT22;5977;51.972;7.640;2022-08-25T05:34:26;25.70;65.10
11836;DHT22;5977;51.972;7.640;2022-08-25T05:36:55;25.70;64.90
11836;DHT22;5977;51.972;7.640;2022-08-25T05:39:25;25.70;65.20
11836;DHT22;5977;51.972;7.640;2022-08-25T05:41:53;25.70;65.00
11836;DHT22;5977;51.972;7.640;2022-08-25T05:44:21;25.70;65.30
11836;DHT22;5977;51.972;7.640;2022-08-25T05:46:49;25.70;65.20
11836;DHT22;5977;51.972;7.640;2022-08-25T05:49:18;25.80;65.30
11836;DHT22;5977;51.972;7.640;2022-08-25T05:51:47;25.80;65.00
11836;DHT22;5977;51.972;7.640;2022-08-25T05:54:15;25.70;64.90
11836;DHT22;5977;51.972;7.640;2022-08-25T05:56:43;25.70;64.90
11836;DHT22;5977;51.972;7.640;2022-08-25T05:59:12;25.60;65.20
11836;DHT22;5977;51.972;7.640;2022-08-25T06:01:39;25.60;64.90
11836;DHT22;5977;51.972;7.640;2022-08-25T06:04:24;25.60;64.90
11836;DHT22;5977;51.972;7.640;2022-08-25T06:06:54;25.40;64.70
11836;DHT22;5977;51.972;7.640;2022-08-25T06:09:22;25.30;65.10
11836;DHT22;5977;51.972;7.640;2022-08-25T06:11:50;25.30;64.90
11836;DHT22;5977;51.972;7.640;2022-08-25T06:14:21;25.10;64.90
11836;DHT22;5977;51.972;7.640;2022-08-25T06:16:49;24.90;65.40
11836;DHT22;5977;51.972;7.640;2022-08-25T06:19:17;24.80;66.00
11836;DHT22;5977;51.972;7.640;2022-08-25T06:21:47;24.80;65.80
11836;DHT22;5977;51.972;7.640;2022-08-25T06:24:16;24.80;66.00
11836;DHT22;5977;51.972;7.640;2022-08-25T06:26:44;24.50;66.70
11836;DHT22;5977;51.972;7.640;2022-08-25T06:29:12;24.60;66.80
11836;DHT22;5977;51.972;7.640;2022-08-25T06:31:41;24.60;66.80
11836;DHT22;5977;51.972;7.640;2022-08-25T06:34:09;24.70;66.70
11836;DHT22;5977;51.972;7.640;2022-08-25T06:36:38;24.60;66.70
11836;DHT22;5977;51.972;7.640;2022-08-25T06:39:07;24.70;67.30
11836;DHT22;5977;51.972;7.640;2022-08-25T06:41:37;24.60;67.30
11836;DHT22;5977;51.972;7.640;2022-08-25T06:44:05;24.60;67.40
11836;DHT22;5977;51.972;7.640;2022-08-25T06:46:33;24.60;67.90
11836;DHT22;5977;51.972;7.640;2022-08-25T06:49:03;24.60;67.80
11836;DHT22;5977;51.972;7.640;2022-08-25T06:51:31;24.80;67.60
11836;DHT22;5977;51.972;7.640;2022-08-25T06:54:02;24.80;67.60
11836;DHT22;5977;51.972;7.640;2022-08-25T06:56:30;24.80;67.40
11836;DHT22;5977;51.972;7.640;2022-08-25T06:59:01;24.90;67.30
11836;DHT22;5977;51.972;7.640;2022-08-25T07:01:30;24.90;67.50
11836;DHT22;5977;51.972;7.640;2022-08-25T07:04:00;25.00;67.00
11836;DHT22;5977;51.972;7.640;2022-08-25T07:06:30;25.00;67.50
11836;DHT22;5977;51.972;7.640;2022-08-25T07:09:02;25.10;67.50
11836;DHT22;5977;51.972;7.640;2022-08-25T07:11:30;25.10;67.30
11836;DHT22;5977;51.972;7.640;2022-08-25T07:14:01;25.10;67.10
11836;DHT22;5977;51.972;7.640;2022-08-25T07:16:30;25.20;67.30
11836;DHT22;5977;51.972;7.640;2022-08-25T07:18:59;25.20;67.40
11836;DHT22;5977;51.972;7.640;2022-08-25T07:21:29;25.30;67.40
11836;DHT22;5977;51.972;7.640;2022-08-25T07:24:03;25.50;67.20
11836;DHT22;5977;51.972;7.640;2022-08-25T07:26:33;25.50;67.30
11836;DHT22;5977;51.972;7.640;2022-08-25T07:29:13;25.50;67.00
11836;DHT22;5977;51.972;7.640;2022-08-25T07:31:41;25.50;66.90
11836;DHT22;5977;51.972;7.640;2022-08-25T07:34:09;25.60;67.10
11836;DHT22;5977;51.972;7.640;2022-08-25T07:36:56;25.60;67.00
11836;DHT22;5977;51.972;7.640;2022-08-25T07:39:25;25.70;67.30
11836;DHT22;5977;51.972;7.640;2022-08-25T07:41:55;25.70;67.50
11836;DHT22;5977;51.972;7.640;2022-08-25T07:44:24;25.60;67.40
11836;DHT22;5977;51.972;7.640;2022-08-25T07:46:54;25.50;67.90
11836;DHT22;5977;51.972;7.640;2022-08-25T07:49:23;25.60;67.80
11836;DHT22;5977;51.972;7.640;2022-08-25T07:52:00;25.70;67.70
11836;DHT22;5977;51.972;7.640;2022-08-25T07:54:32;26.30;66.60
11836;DHT22;5977;51.972;7.640;2022-08-25T07:57:01;27.20;64.60
11836;DHT22;5977;51.972;7.640;2022-08-25T07:59:31;27.80;62.50
11836;DHT22;5977;51.972;7.640;2022-08-25T08:02:06;28.40;61.00
11836;DHT22;5977;51.972;7.640;2022-08-25T08:04:44;28.80;59.80
11836;DHT22;5977;51.972;7.640;2022-08-25T08:07:15;29.30;59.00
11836;DHT22;5977;51.972;7.640;2022-08-25T08:09:45;29.60;58.00
11836;DHT22;5977;51.972;7.640;2022-08-25T08:12:21;29.80;57.70
11836;DHT22;5977;51.972;7.640;2022-08-25T08:14:51;30.00;57.20
11836;DHT22;5977;51.972;7.640;2022-08-25T08:17:19;30.20;56.90
11836;DHT22;5977;51.972;7.640;2022-08-25T08:19:47;30.20;56.70
11836;DHT22;5977;51.972;7.640;2022-08-25T08:22:15;29.60;57.40
11836;DHT22;5977;51.972;7.640;2022-08-25T08:24:44;28.90;58.60
11836;DHT22;5977;51.972;7.640;2022-08-25T08:27:20;28.50;59.70
11836;DHT22;5977;51.972;7.640;2022-08-25T08:29:48;28.10;60.50
11836;DHT22;5977;51.972;7.640;2022-08-25T08:32:17;27.90;61.30
11836;DHT22;5977;51.972;7.640;2022-08-25T08:34:51;27.80;61.70
11836;DHT22;5977;51.972;7.640;2022-08-25T08:37:19;27.70;61.90
11836;DHT22;5977;51.972;7.640;2022-08-25T08:39:49;27.70;62.20
11836;DHT22;5977;51.972;7.640;2022-08-25T08:42:33;27.60;62.50
11836;DHT22;5977;51.972;7.640;2022-08-25T08:45:15;27.60;62.70
11836;DHT22;5977;51.972;7.640;2022-08-25T08:47:58;27.60;63.00
11836;DHT22;5977;51.972;7.640;2022-08-25T08:50:37;27.60;63.00
11836;DHT22;5977;51.972;7.640;2022-08-25T08:53:12;27.60;62.90
11836;DHT22;5977;51.972;7.640;2022-08-25T08:55:42;27.60;62.90
11836;DHT22;5977;51.972;7.640;2022-08-25T08:58:20;27.60;62.90
11836;DHT22;5977;51.972;7.640;2022-08-25T09:00:54;27.70;63.00
11836;DHT22;5977;51.972;7.640;2022-08-25T09:03:32;27.60;62.90
11836;DHT22;5977;51.972;7.640;2022-08-25T09:06:04;27.50;63.30
11836;DHT22;5977;51.972;7.640;2022-08-25T09:08:33;27.60;63.60
11836;DHT22;5977;51.972;7.640;2022-08-25T09:11:07;27.60;63.40
11836;DHT22;5977;51.972;7.640;2022-08-25T09:14:02;27.60;63.20
11836;DHT22;5977;51.972;7.640;2022-08-25T09:16:40;27.60;63.20
11836;DHT22;5977;51.972;7.640;2022-08-25T09:19:34;27.60;63.10
11836;DHT22;5977;51.972;7.640;2022-08-25T09:22:15;27.60;63.10
11836;DHT22;5977;51.972;7.640;2022-08-25T09:25:07;27.70;63.30
11836;DHT22;5977;51.972;7.640;2022-08-25T09:27:40;27.70;63.20
11836;DHT22;5977;51.972;7.640;2022-08-25T09:30:14;27.60;63.20
11836;DHT22;5977;51.972;7.640;2022-08-25T09:32:45;27.70;63.30
11836;DHT22;5977;51.972;7.640;2022-08-25T09:35:22;27.70;63.20
11836;DHT22;5977;51.972;7.640;2022-08-25T09:37:56;27.80;63.20
11836;DHT22;5977;51.972;7.640;2022-08-25T09:40:26;27.80;63.20
11836;DHT22;5977;51.972;7.640;2022-08-25T09:42:58;27.80;63.30
11836;DHT22;5977;51.972;7.640;2022-08-25T09:45:40;27.70;63.10
11836;DHT22;5977;51.972;7.640;2022-08-25T09:48:24;27.80;63.30
11836;DHT22;5977;51.972;7.640;2022-08-25T09:51:00;27.80;63.20
11836;DHT22;5977;51.972;7.640;2022-08-25T09:53:29;27.80;63.20
11836;DHT22;5977;51.972;7.640;2022-08-25T09:56:02;27.80;63.20
11836;DHT22;5977;51.972;7.640;2022-08-25T09:58:32;27.70;63.00
11836;DHT22;5977;51.972;7.640;2022-08-25T10:01:10;27.70;62.90
11836;DHT22;5977;51.972;7.640;2022-08-25T10:03:57;27.70;62.90
11836;DHT22;5977;51.972;7.640;2022-08-25T10:06:32;27.80;62.80
11836;DHT22;5977;51.972;7.640;2022-08-25T10:09:04;27.80;62.60
11836;DHT22;5977;51.972;7.640;2022-08-25T10:11:36;27.80;62.40
11836;DHT22;5977;51.972;7.640;2022-08-25T10:14:16;27.80;62.20
11836;DHT22;5977;51.972;7.640;2022-08-25T10:16:44;27.90;62.00
11836;DHT22;5977;51.972;7.640;2022-08-25T10:19:22;27.80;61.80
11836;DHT22;5977;51.972;7.640;2022-08-25T10:22:07;27.80;61.70
11836;DHT22;5977;51.972;7.640;2022-08-25T10:24:38;27.80;61.60
11836;DHT22;5977;51.972;7.640;2022-08-25T10:27:17;27.90;61.40
11836;DHT22;5977;51.972;7.640;2022-08-25T10:30:11;27.90;61.80
11836;DHT22;5977;51.972;7.640;2022-08-25T10:32:53;27.80;61.20
11836;DHT22;5977;51.972;7.640;2022-08-25T10:35:29;27.80;61.40
11836;DHT22;5977;51.972;7.640;2022-08-25T10:38:06;27.80;62.20
11836;DHT22;5977;51.972;7.640;2022-08-25T10:40:52;27.80;61.40
11836;DHT22;5977;51.972;7.640;2022-08-25T10:43:30;27.80;61.60
11836;DHT22;5977;51.972;7.640;2022-08-25T10:46:04;27.90;61.80
11836;DHT22;5977;51.972;7.640;2022-08-25T10:48:46;27.80;61.90
11836;DHT22;5977;51.972;7.640;2022-08-25T10:51:30;27.80;61.90
11836;DHT22;5977;51.972;7.640;2022-08-25T10:54:07;27.90;64.50
11836;DHT22;5977;51.972;7.640;2022-08-25T10:56:38;27.90;62.70
11836;DHT22;5977;51.972;7.640;2022-08-25T10:59:28;27.80;62.60
11836;DHT22;5977;51.972;7.640;2022-08-25T11:02:14;27.80;62.90
11836;DHT22;5977;51.972;7.640;2022-08-25T11:04:56;27.80;63.00
11836;DHT22;5977;51.972;7.640;2022-08-25T11:07:30;27.80;63.30
11836;DHT22;5977;51.972;7.640;2022-08-25T11:10:06;27.80;63.60
11836;DHT22;5977;51.972;7.640;2022-08-25T11:12:39;27.80;63.70
11836;DHT22;5977;51.972;7.640;2022-08-25T11:15:11;27.80;63.80
11836;DHT22;5977;51.972;7.640;2022-08-25T11:17:46;27.80;63.80
11836;DHT22;5977;51.972;7.640;2022-08-25T11:20:19;27.80;64.00
11836;DHT22;5977;51.972;7.640;2022-08-25T11:23:05;27.80;64.00
11836;DHT22;5977;51.972;7.640;2022-08-25T11:25:41;27.80;64.20
11836;DHT22;5977;51.972;7.640;2022-08-25T11:28:12;27.80;64.10
11836;DHT22;5977;51.972;7.640;2022-08-25T11:30:41;27.80;64.30
11836;DHT22;5977;51.972;7.640;2022-08-25T11:33:13;27.70;64.30
11836;DHT22;5977;51.972;7.640;2022-08-25T11:35:46;27.70;64.20
11836;DHT22;5977;51.972;7.640;2022-08-25T11:38:26;27.70;64.20
11836;DHT22;5977;51.972;7.640;2022-08-25T11:41:07;27.70;64.40
11836;DHT22;5977;51.972;7.640;2022-08-25T11:43:51;27.70;64.60
11836;DHT22;5977;51.972;7.640;2022-08-25T11:46:35;27.70;64.50
11836;DHT22;5977;51.972;7.640;2022-08-25T11:49:31;27.60;64.50
11836;DHT22;5977;51.972;7.640;2022-08-25T11:55:07;27.60;64.10
11836;DHT22;5977;51.972;7.640;2022-08-25T11:57:38;27.70;64.00
11836;DHT22;5977;51.972;7.640;2022-08-25T12:00:10;27.70;63.80
11836;DHT22;5977;51.972;7.640;2022-08-25T12:02:42;27.70;63.70
11836;DHT22;5977;51.972;7.640;2022-08-25T12:05:50;27.70;63.60
11836;DHT22;5977;51.972;7.640;2022-08-25T12:08:47;27.70;63.60
11836;DHT22;5977;51.972;7.640;2022-08-25T12:14:42;27.60;63.20
11836;DHT22;5977;51.972;7.640;2022-08-25T12:17:23;27.60;63.40
11836;DHT22;5977;51.972;7.640;2022-08-25T12:19:57;27.60;63.00
11836;DHT22;5977;51.972;7.640;2022-08-25T12:22:47;27.60;63.00
11836;DHT22;5977;51.972;7.640;2022-08-25T12:25:45;27.60;62.90
11836;DHT22;5977;51.972;7.640;2022-08-25T12:28:30;27.60;62.80
11836;DHT22;5977;51.972;7.640;2022-08-25T12:31:10;27.60;62.70
11836;DHT22;5977;51.972;7.640;2022-08-25T12:33:55;27.60;62.80
11836;DHT22;5977;51.972;7.640;2022-08-25T12:36:28;27.70;62.80
11836;DHT22;5977;51.972;7.640;2022-08-25T12:39:20;27.60;62.70
11836;DHT22;5977;51.972;7.640;2022-08-25T12:41:55;27.70;62.70
11836;DHT22;5977;51.972;7.640;2022-08-25T12:44:40;27.70;62.60
11836;DHT22;5977;51.972;7.640;2022-08-25T12:47:26;27.70;62.50
11836;DHT22;5977;51.972;7.640;2022-08-25T12:50:29;27.70;62.40
11836;DHT22;5977;51.972;7.640;2022-08-25T12:53:09;27.70;62.30
11836;DHT22;5977;51.972;7.640;2022-08-25T12:55:41;27.70;62.30
11836;DHT22;5977;51.972;7.640;2022-08-25T12:58:11;27.60;62.20
11836;DHT22;5977;51.972;7.640;2022-08-25T13:00:56;27.60;62.20
11836;DHT22;5977;51.972;7.640;2022-08-25T13:03:59;27.70;62.20
11836;DHT22;5977;51.972;7.640;2022-08-25T13:06:47;27.70;62.20
11836;DHT22;5977;51.972;7.640;2022-08-25T13:12:20;27.70;61.80
11836;DHT22;5977;51.972;7.640;2022-08-25T13:14:52;27.70;61.60
11836;DHT22;5977;51.972;7.640;2022-08-25T13:17:25;27.70;61.40
11836;DHT22;5977;51.972;7.640;2022-08-25T13:20:12;27.70;61.40
11836;DHT22;5977;51.972;7.640;2022-08-25T13:22:43;27.80;61.30
11836;DHT22;5977;51.972;7.640;2022-08-25T13:25:15;27.80;61.00
11836;DHT22;5977;51.972;7.640;2022-08-25T13:27:50;27.80;60.70
11836;DHT22;5977;51.972;7.640;2022-08-25T13:30:23;27.80;61.00
11836;DHT22;5977;51.972;7.640;2022-08-25T13:32:51;27.70;61.10
11836;DHT22;5977;51.972;7.640;2022-08-25T13:35:23;27.70;61.20
11836;DHT22;5977;51.972;7.640;2022-08-25T13:38:11;27.70;61.40
11836;DHT22;5977;51.972;7.640;2022-08-25T13:40:38;27.60;61.50
11836;DHT22;5977;51.972;7.640;2022-08-25T13:43:11;27.60;61.20
11836;DHT22;5977;51.972;7.640;2022-08-25T13:45:43;27.60;61.40
11836;DHT22;5977;51.972;7.640;2022-08-25T13:48:13;27.60;61.40
11836;DHT22;5977;51.972;7.640;2022-08-25T13:51:06;27.70;61.40
11836;DHT22;5977;51.972;7.640;2022-08-25T13:53:36;27.60;61.40
11836;DHT22;5977;51.972;7.640;2022-08-25T13:56:05;27.70;61.50
11836;DHT22;5977;51.972;7.640;2022-08-25T13:58:35;27.60;61.60
11836;DHT22;5977;51.972;7.640;2022-08-25T14:01:13;27.60;61.40
11836;DHT22;5977;51.972;7.640;2022-08-25T14:04:26;27.60;61.50
11836;DHT22;5977;51.972;7.640;2022-08-25T14:07:26;27.60;61.40
11836;DHT22;5977;51.972;7.640;2022-08-25T14:10:02;27.70;61.30
11836;DHT22;5977;51.972;7.640;2022-08-25T14:12:39;27.70;61.60
11836;DHT22;5977;51.972;7.640;2022-08-25T14:15:25;27.70;61.50
11836;DHT22;5977;51.972;7.640;2022-08-25T14:18:03;27.70;61.40
11836;DHT22;5977;51.972;7.640;2022-08-25T14:20:33;27.70;61.40
11836;DHT22;5977;51.972;7.640;2022-08-25T14:23:06;27.70;61.10
11836;DHT22;5977;51.972;7.640;2022-08-25T14:25:35;27.70;61.10
11836;DHT22;5977;51.972;7.640;2022-08-25T14:28:11;27.70;61.20
11836;DHT22;5977;51.972;7.640;2022-08-25T14:30:43;27.60;60.90
11836;DHT22;5977;51.972;7.640;2022-08-25T14:33:14;27.70;61.20
11836;DHT22;5977;51.972;7.640;2022-08-25T14:35:45;27.70;61.10
11836;DHT22;5977;51.972;7.640;2022-08-25T14:38:15;27.70;60.90
11836;DHT22;5977;51.972;7.640;2022-08-25T14:40:44;27.70;61.00
11836;DHT22;5977;51.972;7.640;2022-08-25T14:43:13;27.70;60.90
11836;DHT22;5977;51.972;7.640;2022-08-25T14:45:42;27.70;60.70
11836;DHT22;5977;51.972;7.640;2022-08-25T14:48:18;27.70;60.60
11836;DHT22;5977;51.972;7.640;2022-08-25T14:50:47;27.70;60.60
11836;DHT22;5977;51.972;7.640;2022-08-25T14:53:17;27.80;60.60
11836;DHT22;5977;51.972;7.640;2022-08-25T14:55:45;27.80;60.60
11836;DHT22;5977;51.972;7.640;2022-08-25T14:58:17;27.80;60.60
11836;DHT22;5977;51.972;7.640;2022-08-25T15:00:52;27.80;60.50
11836;DHT22;5977;51.972;7.640;2022-08-25T15:03:26;27.70;60.30
11836;DHT22;5977;51.972;7.640;2022-08-25T15:05:55;27.80;60.60
11836;DHT22;5977;51.972;7.640;2022-08-25T15:08:24;27.80;60.50
11836;DHT22;5977;51.972;7.640;2022-08-25T15:11:10;27.80;60.50
11836;DHT22;5977;51.972;7.640;2022-08-25T15:13:39;27.80;60.30
11836;DHT22;5977;51.972;7.640;2022-08-25T15:16:07;27.80;60.30
11836;DHT22;5977;51.972;7.640;2022-08-25T15:18:36;27.80;60.40
11836;DHT22;5977;51.972;7.640;2022-08-25T15:21:04;27.80;60.50
11836;DHT22;5977;51.972;7.640;2022-08-25T15:23:33;27.80;60.60
11836;DHT22;5977;51.972;7.640;2022-08-25T15:26:02;27.80;60.60
11836;DHT22;5977;51.972;7.640;2022-08-25T15:28:31;27.70;60.60
11836;DHT22;5977;51.972;7.640;2022-08-25T15:30:58;27.70;60.80
11836;DHT22;5977;51.972;7.640;2022-08-25T15:33:26;27.70;60.80
11836;DHT22;5977;51.972;7.640;2022-08-25T15:35:54;27.70;60.80
11836;DHT22;5977;51.972;7.640;2022-08-25T15:38:23;27.70;60.80
11836;DHT22;5977;51.972;7.640;2022-08-25T15:40:53;27.70;60.80
11836;DHT22;5977;51.972;7.640;2022-08-25T15:43:23;27.80;61.00
11836;DHT22;5977;51.972;7.640;2022-08-25T15:45:51;27.80;60.90
11836;DHT22;5977;51.972;7.640;2022-08-25T15:48:19;27.90;60.40
11836;DHT22;5977;51.972;7.640;2022-08-25T15:50:48;28.00;60.10
11836;DHT22;5977;51.972;7.640;2022-08-25T15:53:20;28.00;60.30
11836;DHT22;5977;51.972;7.640;2022-08-25T15:55:53;27.90;60.30
11836;DHT22;5977;51.972;7.640;2022-08-25T15:58:23;27.90;60.40
11836;DHT22;5977;51.972;7.640;2022-08-25T16:00:52;27.90;60.30
11836;DHT22;5977;51.972;7.640;2022-08-25T16:03:22;27.90;60.20
11836;DHT22;5977;51.972;7.640;2022-08-25T16:05:50;27.90;60.10
11836;DHT22;5977;51.972;7.640;2022-08-25T16:08:17;27.90;60.10
11836;DHT22;5977;51.972;7.640;2022-08-25T16:10:46;28.00;60.10
11836;DHT22;5977;51.972;7.640;2022-08-25T16:13:16;28.00;60.00
11836;DHT22;5977;51.972;7.640;2022-08-25T16:15:48;28.00;60.10
11836;DHT22;5977;51.972;7.640;2022-08-25T16:18:20;28.00;60.00
11836;DHT22;5977;51.972;7.640;2022-08-25T16:20:49;28.00;60.00
11836;DHT22;5977;51.972;7.640;2022-08-25T16:23:18;28.00;60.00
11836;DHT22;5977;51.972;7.640;2022-08-25T16:25:47;28.00;60.00
11836;DHT22;5977;51.972;7.640;2022-08-25T16:28:18;27.90;60.10